Time;durP1;ratioP1;P1;durP2;ratioP2;P2;SDS_P1;SDS_P2;PMS_P1;PMS_P2;Temp;Humidity;BMP_temperature;BMP_pressure;BME280_temperature;BME280_humidity;BME280_pressure;Samples;Min_cycle;Max_cycle;Signal;HPM_P1;HPM_P2
2022/05/11 00:02:08;;;;;;;0.40;0.40;;;18.50;99.90;;;;;;5073654;28;20750;-65
2022/05/11 00:04:56;;;;;;;0.40;0.40;;;18.50;99.90;;;;;;5073067;28;20221;-65
2022/05/11 00:07:44;;;;;;;0.40;0.40;;;18.50;99.90;;;;;;5073536;28;20197;-65
2022/05/11 00:10:33;;;;;;;0.40;0.40;;;18.50;99.90;;;;;;5072953;28;20196;-65
2022/05/11 00:13:21;;;;;;;0.75;0.75;;;18.50;99.90;;;;;;5073489;28;20215;-65
2022/05/11 00:16:09;;;;;;;1.25;1.15;;;18.50;99.90;;;;;;5073433;28;20274;-66
2022/05/11 00:18:58;;;;;;;0.40;0.40;;;18.50;99.90;;;;;;5072869;28;20220;-66
2022/05/11 00:21:46;;;;;;;0.50;0.50;;;18.40;99.90;;;;;;5088051;28;20293;-65
2022/05/11 00:24:35;;;;;;;0.40;0.40;;;18.40;99.90;;;;;;5094021;28;20561;-65
2022/05/11 00:27:23;;;;;;;0.40;0.40;;;18.40;99.90;;;;;;5093927;28;20247;-64
2022/05/11 00:30:12;;;;;;;0.40;0.40;;;18.50;99.90;;;;;;5094050;28;20203;-65
2022/05/11 00:33:02;;;;;;;1.85;0.95;;;18.40;99.90;;;;;;5093643;28;20204;-65
2022/05/11 00:35:52;;;;;;;2.15;1.95;;;18.30;99.90;;;;;;5093926;28;20305;-65
2022/05/11 00:38:41;;;;;;;0.50;0.50;;;18.20;99.90;;;;;;5093554;28;20268;-66
2022/05/11 00:41:29;;;;;;;0.50;0.50;;;18.10;99.90;;;;;;5093736;28;20257;-64
2022/05/11 00:44:17;;;;;;;0.40;0.40;;;18.10;99.90;;;;;;5093315;28;20680;-64
2022/05/11 00:47:12;;;;;;;0.40;0.40;;;18.00;99.90;;;;;;5093345;28;20196;-65
2022/05/11 00:50:06;;;;;;;0.40;0.40;;;18.10;99.90;;;;;;5093464;28;20668;-64
2022/05/11 00:52:59;;;;;;;0.40;0.40;;;18.10;99.90;;;;;;5093250;28;20688;-64
2022/05/11 00:55:50;;;;;;;0.40;0.40;;;18.10;99.90;;;;;;5093814;28;20240;-65
2022/05/11 00:58:42;;;;;;;0.40;0.40;;;18.10;99.90;;;;;;5093825;28;20676;-65
2022/05/11 01:01:31;;;;;;;0.40;0.40;;;18.20;99.90;;;;;;5093339;28;20601;-65
2022/05/11 01:04:22;;;;;;;0.40;0.40;;;18.20;99.90;;;;;;5093002;28;20572;-67
2022/05/11 01:07:12;;;;;;;0.40;0.40;;;18.20;99.90;;;;;;5090408;28;20204;-65
2022/05/11 01:10:02;;;;;;;0.40;0.40;;;18.20;99.90;;;;;;5081878;28;20228;-66
2022/05/11 01:12:53;;;;;;;0.40;0.40;;;18.20;99.90;;;;;;5093698;28;20271;-65
2022/05/11 01:15:45;;;;;;;0.40;0.40;;;18.20;99.90;;;;;;5093555;28;20220;-65
2022/05/11 01:18:34;;;;;;;0.40;0.40;;;18.20;99.90;;;;;;5093702;28;20219;-65
2022/05/11 01:21:25;;;;;;;0.40;0.40;;;18.20;99.90;;;;;;5083731;28;20388;-64
2022/05/11 01:24:34;;;;;;;0.40;0.40;;;18.20;99.90;;;;;;5073778;28;20228;-65
2022/05/11 01:27:27;;;;;;;0.40;0.40;;;18.20;99.90;;;;;;5072946;28;20262;-65
2022/05/11 01:30:18;;;;;;;0.40;0.40;;;18.20;99.90;;;;;;5075187;28;20286;-65
2022/05/11 01:33:07;;;;;;;0.40;0.40;;;18.20;99.90;;;;;;5072627;28;20244;-65
2022/05/11 01:36:05;;;;;;;0.45;0.45;;;18.20;99.90;;;;;;5103123;23;20257;-70
2022/05/11 01:38:56;;;;;;;0.40;0.40;;;18.30;99.90;;;;;;5089981;28;20212;-72
2022/05/11 01:41:52;;;;;;;0.50;0.50;;;18.30;99.90;;;;;;5091292;28;20238;-71
2022/05/11 01:44:40;;;;;;;0.70;0.70;;;18.30;99.90;;;;;;5091378;28;20296;-72
2022/05/11 01:47:28;;;;;;;0.40;0.40;;;18.30;99.90;;;;;;5093054;28;20234;-72
2022/05/11 01:50:17;;;;;;;0.40;0.40;;;18.30;99.90;;;;;;5091020;28;20302;-71
2022/05/11 01:53:06;;;;;;;0.40;0.40;;;18.30;99.90;;;;;;5090765;28;20200;-70
2022/05/11 01:55:54;;;;;;;0.40;0.40;;;18.30;99.90;;;;;;5091916;28;20216;-72
2022/05/11 01:58:44;;;;;;;0.40;0.40;;;18.30;99.90;;;;;;5092115;28;20234;-73
2022/05/11 02:01:34;;;;;;;0.45;0.45;;;18.30;99.90;;;;;;5092338;28;20192;-71
2022/05/11 02:10:34;;;;;;;0.40;0.40;;;18.10;99.90;;;;;;5092515;28;20684;-72
2022/05/11 02:13:22;;;;;;;0.40;0.40;;;18.00;99.90;;;;;;5091270;28;20238;-70
2022/05/11 02:16:12;;;;;;;0.40;0.40;;;18.10;99.90;;;;;;5091957;28;20281;-74
2022/05/11 02:19:00;;;;;;;0.40;0.40;;;18.00;99.90;;;;;;5092711;28;20222;-69
2022/05/11 02:21:48;;;;;;;0.40;0.40;;;17.90;99.90;;;;;;5094803;28;20288;-70
2022/05/11 02:24:36;;;;;;;0.50;0.50;;;17.90;99.90;;;;;;5095247;28;20207;-69
2022/05/11 02:27:24;;;;;;;0.40;0.40;;;17.90;99.90;;;;;;5094581;28;20269;-71
2022/05/11 02:30:15;;;;;;;0.40;0.40;;;17.90;99.90;;;;;;5095268;28;20207;-74
2022/05/11 02:33:04;;;;;;;0.40;0.40;;;18.00;99.90;;;;;;5095499;28;20237;-71
2022/05/11 02:52:24;;;;;;;0.60;0.60;;;18.00;99.90;;;;;;5090454;28;20181;-72
2022/05/11 02:55:13;;;;;;;0.40;0.40;;;18.00;99.90;;;;;;5095757;28;20301;-71
2022/05/11 02:58:01;;;;;;;0.40;0.40;;;18.00;99.90;;;;;;5096175;28;20329;-71
2022/05/11 03:00:51;;;;;;;0.40;0.40;;;18.00;99.90;;;;;;5096156;28;20207;-71
2022/05/11 03:03:39;;;;;;;0.40;0.40;;;18.00;99.90;;;;;;5095880;28;20215;-71
2022/05/11 03:06:28;;;;;;;0.50;0.50;;;18.00;99.90;;;;;;5095021;28;20695;-74
2022/05/11 03:09:18;;;;;;;0.50;0.50;;;18.00;99.90;;;;;;5096654;28;20337;-72
2022/05/11 03:12:07;;;;;;;0.40;0.40;;;18.00;99.90;;;;;;5095216;28;20275;-73
2022/05/11 03:14:57;;;;;;;0.40;0.40;;;18.00;99.90;;;;;;5095953;28;20208;-70
2022/05/11 03:17:45;;;;;;;0.40;0.40;;;18.00;99.90;;;;;;5096908;28;20756;-74
2022/05/11 03:20:34;;;;;;;0.40;0.40;;;18.00;99.90;;;;;;5094954;28;20725;-71
2022/05/11 03:23:22;;;;;;;0.40;0.40;;;17.90;99.90;;;;;;5093322;28;20668;-70
2022/05/11 03:26:14;;;;;;;0.40;0.40;;;17.90;99.90;;;;;;5093565;28;20643;-71
2022/05/11 03:29:05;;;;;;;0.40;0.40;;;17.90;99.90;;;;;;5094331;28;20246;-71
2022/05/11 03:34:58;;;;;;;0.40;0.40;;;18.00;99.90;;;;;;5089332;28;20756;-72
2022/05/11 03:37:46;;;;;;;0.40;0.40;;;17.90;99.90;;;;;;5095649;28;20704;-71
2022/05/11 03:40:34;;;;;;;0.50;0.50;;;17.90;99.90;;;;;;5096376;28;20216;-72
2022/05/11 03:43:24;;;;;;;0.50;0.50;;;17.90;99.90;;;;;;5095990;28;20203;-74
2022/05/11 03:46:12;;;;;;;0.40;0.40;;;17.90;99.90;;;;;;5095875;28;20223;-74
2022/05/11 03:49:00;;;;;;;0.40;0.40;;;17.90;99.90;;;;;;5095830;28;20200;-73
2022/05/11 03:51:48;;;;;;;0.45;0.45;;;17.90;99.90;;;;;;5096044;28;20211;-74
2022/05/11 03:54:36;;;;;;;0.40;0.40;;;17.90;99.90;;;;;;5095368;28;20211;-72
2022/05/11 03:57:24;;;;;;;0.40;0.40;;;17.90;99.90;;;;;;5095286;28;20227;-73
2022/05/11 04:00:19;;;;;;;0.40;0.40;;;17.70;99.90;;;;;;5093371;28;20216;-71
2022/05/11 04:03:07;;;;;;;0.40;0.40;;;17.70;99.90;;;;;;5093093;28;20579;-71
2022/05/11 04:05:55;;;;;;;0.40;0.40;;;17.70;99.90;;;;;;5093567;28;20215;-70
2022/05/11 04:08:43;;;;;;;0.40;0.40;;;17.60;99.90;;;;;;5094986;28;20199;-73
2022/05/11 04:11:33;;;;;;;0.70;0.70;;;17.50;99.90;;;;;;5093525;28;20273;-74
2022/05/11 04:14:21;;;;;;;0.40;0.40;;;17.50;99.90;;;;;;5094958;28;20674;-71
2022/05/11 04:17:10;;;;;;;0.50;0.50;;;17.30;99.90;;;;;;5093188;28;20199;-71
2022/05/11 04:19:59;;;;;;;0.43;0.43;;;17.20;99.90;;;;;;5094492;28;20709;-71
2022/05/11 04:22:47;;;;;;;0.50;0.50;;;17.20;99.90;;;;;;5072211;28;20271;-71
2022/05/11 04:25:36;;;;;;;0.40;0.40;;;17.20;99.90;;;;;;5072901;28;20267;-69
2022/05/11 04:28:24;;;;;;;0.40;0.40;;;17.20;99.90;;;;;;5074105;28;20271;-71
2022/05/11 04:31:13;;;;;;;0.40;0.40;;;17.30;99.90;;;;;;5072689;28;20197;-71
2022/05/11 04:34:03;;;;;;;0.40;0.40;;;17.40;99.90;;;;;;5072504;28;20211;-72
2022/05/11 04:36:52;;;;;;;0.73;0.73;;;17.50;99.90;;;;;;5071757;28;20229;-71
2022/05/11 04:39:40;;;;;;;0.40;0.40;;;17.60;99.90;;;;;;5072638;28;20718;-72
2022/05/11 04:42:29;;;;;;;0.40;0.40;;;17.70;99.90;;;;;;5072506;28;20243;-73
2022/05/11 04:45:18;;;;;;;0.40;0.40;;;17.60;99.90;;;;;;5073007;28;20220;-71
2022/05/11 04:48:06;;;;;;;0.40;0.40;;;17.60;99.90;;;;;;5073216;28;20196;-71
2022/05/11 04:51:00;;;;;;;0.40;0.40;;;17.50;99.90;;;;;;5073963;28;20633;-72
2022/05/11 04:53:48;;;;;;;0.50;0.50;;;17.50;99.90;;;;;;5086899;28;20212;-74
2022/05/11 04:56:38;;;;;;;0.40;0.40;;;17.50;99.90;;;;;;5093703;28;20278;-71
2022/05/11 04:59:26;;;;;;;0.40;0.40;;;17.60;99.90;;;;;;5093786;28;20224;-70
2022/05/11 05:02:16;;;;;;;0.40;0.40;;;17.60;99.90;;;;;;5094371;28;20352;-73
2022/05/11 05:05:08;;;;;;;0.47;0.47;;;17.70;99.90;;;;;;5092911;28;20599;-74
2022/05/11 05:07:58;;;;;;;0.40;0.40;;;17.70;99.90;;;;;;5095349;28;20226;-70
2022/05/11 05:10:47;;;;;;;0.50;0.50;;;17.80;99.90;;;;;;5095410;28;20258;-71
2022/05/11 05:13:35;;;;;;;0.40;0.40;;;17.80;99.90;;;;;;5094463;28;20284;-72
2022/05/11 05:16:23;;;;;;;0.40;0.40;;;17.90;99.90;;;;;;5094070;28;20270;-71
2022/05/11 05:19:11;;;;;;;0.40;0.40;;;17.90;99.90;;;;;;5094766;28;20204;-71
2022/05/11 05:22:02;;;;;;;0.40;0.40;;;18.00;99.90;;;;;;5093999;28;20628;-69
2022/05/11 05:24:51;;;;;;;0.40;0.40;;;18.10;99.90;;;;;;5093824;28;20587;-71
2022/05/11 05:27:40;;;;;;;0.50;0.50;;;18.10;99.90;;;;;;5092521;28;20200;-68
2022/05/11 05:33:34;;;;;;;0.40;0.40;;;18.00;99.90;;;;;;5090860;28;20208;-70
2022/05/11 05:36:23;;;;;;;0.47;0.47;;;18.10;99.90;;;;;;5091795;28;20228;-71
2022/05/11 05:39:11;;;;;;;0.50;0.50;;;18.20;99.90;;;;;;5091276;28;20275;-73
2022/05/11 05:42:01;;;;;;;0.40;0.40;;;18.20;99.90;;;;;;5092366;28;20249;-70
2022/05/11 05:44:49;;;;;;;0.50;0.50;;;18.40;99.90;;;;;;5093320;28;20203;-72
2022/05/11 05:47:37;;;;;;;0.40;0.40;;;18.60;99.90;;;;;;5092810;28;20338;-72
2022/05/11 05:50:25;;;;;;;0.40;0.40;;;18.70;99.90;;;;;;5091936;28;20204;-72
2022/05/11 05:53:19;;;;;;;0.70;0.70;;;18.80;99.90;;;;;;5092637;28;20242;-72
2022/05/11 05:56:07;;;;;;;0.40;0.40;;;18.90;99.90;;;;;;5095147;28;20222;-70
2022/05/11 05:58:59;;;;;;;0.50;0.50;;;19.00;99.90;;;;;;5095342;28;20683;-70
2022/05/11 06:01:47;;;;;;;0.40;0.40;;;19.10;99.90;;;;;;5086161;28;20216;-69
2022/05/11 06:04:35;;;;;;;0.40;0.40;;;19.10;99.90;;;;;;5095765;28;20214;-69
2022/05/11 06:07:23;;;;;;;0.43;0.43;;;19.20;99.90;;;;;;5086863;28;20192;-69
2022/05/11 06:10:11;;;;;;;0.40;0.40;;;19.20;99.90;;;;;;5077852;28;20200;-70
2022/05/11 06:12:59;;;;;;;0.40;0.40;;;19.20;99.90;;;;;;5075715;28;20193;-70
2022/05/11 06:15:50;;;;;;;0.40;0.40;;;19.30;99.90;;;;;;5077793;28;20220;-70
2022/05/11 06:18:41;;;;;;;0.70;0.70;;;19.30;99.90;;;;;;5076142;28;20691;-69
2022/05/11 06:21:29;;;;;;;0.85;0.85;;;19.30;99.90;;;;;;5095479;28;20747;-70
2022/05/11 06:24:17;;;;;;;0.50;0.50;;;19.30;99.90;;;;;;5081589;28;20276;-69
2022/05/11 06:27:15;;;;;;;0.50;0.50;;;19.40;99.90;;;;;;5075740;28;20212;-71
2022/05/11 06:30:04;;;;;;;0.40;0.40;;;19.50;99.90;;;;;;5077871;28;20858;-71
2022/05/11 06:32:54;;;;;;;0.50;0.50;;;19.60;99.90;;;;;;5088228;28;20733;-70
2022/05/11 06:35:43;;;;;;;0.50;0.50;;;19.90;99.90;;;;;;5075509;28;20228;-70
2022/05/11 06:38:31;;;;;;;0.40;0.40;;;20.00;99.90;;;;;;5075674;28;20700;-70
2022/05/11 06:41:23;;;;;;;0.40;0.40;;;20.00;99.90;;;;;;5075073;28;20716;-68
2022/05/11 06:44:11;;;;;;;1.40;1.40;;;20.20;99.90;;;;;;5075557;28;20259;-70
2022/05/11 06:46:59;;;;;;;0.40;0.40;;;20.20;99.90;;;;;;5075690;28;20220;-69
2022/05/11 06:49:49;;;;;;;0.55;0.55;;;20.40;99.90;;;;;;5078029;28;20273;-70
2022/05/11 06:52:37;;;;;;;0.50;0.50;;;20.60;99.90;;;;;;5094562;28;20732;-70
2022/05/11 07:01:37;;;;;;;0.40;0.40;;;21.00;99.90;;;;;;5075185;28;20309;-72
2022/05/11 07:04:25;;;;;;;10.85;1.88;;;21.00;99.90;;;;;;5076402;28;20200;-69
2022/05/11 07:07:16;;;;;;;0.40;0.40;;;21.00;99.90;;;;;;5075887;28;20243;-68
2022/05/11 07:10:05;;;;;;;0.40;0.40;;;21.10;99.90;;;;;;5080206;28;20196;-70
2022/05/11 07:12:53;;;;;;;1.33;1.30;;;21.20;99.90;;;;;;5097500;28;20199;-69
2022/05/11 07:15:41;;;;;;;0.40;0.40;;;21.40;99.90;;;;;;5084754;28;20314;-70
2022/05/11 07:18:30;;;;;;;0.80;0.80;;;21.50;99.90;;;;;;5077715;28;20197;-70
2022/05/11 07:21:18;;;;;;;0.50;0.50;;;21.50;99.90;;;;;;5077715;28;20220;-71
2022/05/11 07:24:08;;;;;;;0.40;0.40;;;21.50;99.90;;;;;;5076452;28;20281;-70
2022/05/11 07:26:56;;;;;;;0.40;0.40;;;21.60;99.90;;;;;;5074558;28;20256;-69
2022/05/11 07:29:44;;;;;;;0.40;0.40;;;21.80;99.90;;;;;;5096142;28;20196;-68
2022/05/11 07:32:32;;;;;;;0.40;0.40;;;22.00;99.90;;;;;;5096651;28;20275;-68
2022/05/11 07:35:20;;;;;;;0.40;0.40;;;22.40;99.90;;;;;;5098787;28;20631;-69
2022/05/11 07:38:09;;;;;;;0.60;0.60;;;22.50;99.90;;;;;;5098612;28;20245;-68
2022/05/11 07:40:58;;;;;;;0.50;0.50;;;22.50;99.90;;;;;;5095721;28;20231;-68
2022/05/11 07:43:47;;;;;;;0.40;0.40;;;22.40;99.90;;;;;;5096273;28;20741;-68
2022/05/11 07:46:35;;;;;;;0.40;0.40;;;22.50;99.90;;;;;;5094246;28;20293;-68
2022/05/11 07:49:23;;;;;;;0.40;0.40;;;22.80;99.90;;;;;;5094635;28;20200;-67
2022/05/11 07:52:11;;;;;;;0.40;0.40;;;23.10;99.90;;;;;;5088767;28;20571;-69
2022/05/11 07:54:59;;;;;;;0.40;0.40;;;23.20;99.90;;;;;;5092060;28;20262;-68
2022/05/11 08:00:54;;;;;;;0.40;0.40;;;23.40;99.90;;;;;;5079476;28;20228;-68
2022/05/11 08:03:43;;;;;;;0.40;0.40;;;23.30;99.90;;;;;;5082381;28;20214;-68
2022/05/11 08:06:31;;;;;;;0.50;0.50;;;23.30;99.90;;;;;;5094350;28;20216;-69
2022/05/11 08:09:20;;;;;;;0.60;0.60;;;22.90;99.90;;;;;;5095999;28;20313;-68
2022/05/11 08:12:09;;;;;;;0.40;0.40;;;22.80;99.90;;;;;;5094973;28;20611;-67
2022/05/11 08:14:59;;;;;;;0.50;0.50;;;22.80;99.90;;;;;;5095271;28;20681;-67
2022/05/11 08:17:48;;;;;;;1.98;1.88;;;23.00;99.90;;;;;;5093692;28;20200;-67
2022/05/11 08:20:38;;;;;;;0.40;0.40;;;22.90;99.90;;;;;;5094915;28;20308;-69
2022/05/11 08:23:28;;;;;;;0.40;0.40;;;22.90;99.90;;;;;;5084931;28;20196;-69
2022/05/11 08:26:16;;;;;;;0.40;0.40;;;23.00;99.90;;;;;;5082280;28;20273;-67
2022/05/11 08:29:05;;;;;;;0.50;0.50;;;23.30;99.90;;;;;;5086027;28;20203;-68
2022/05/11 08:35:00;;;;;;;0.40;0.40;;;23.90;99.90;;;;;;5074655;28;20204;-67
2022/05/11 08:37:48;;;;;;;0.50;0.50;;;24.00;99.90;;;;;;5093699;28;20253;-69
2022/05/11 08:40:46;;;;;;;0.40;0.40;;;24.10;99.90;;;;;;5093054;28;20200;-69
2022/05/11 08:43:36;;;;;;;0.40;0.40;;;24.40;99.90;;;;;;5092285;28;20223;-69
2022/05/11 08:46:38;;;;;;;0.40;0.40;;;24.60;99.90;;;;;;5091077;28;20629;-67
2022/05/11 08:49:47;;;;;;;0.50;0.40;;;24.90;99.90;;;;;;5073577;28;20204;-67
2022/05/11 08:52:43;;;;;;;0.40;0.40;;;25.00;99.90;;;;;;5072832;28;20222;-68
2022/05/11 08:55:37;;;;;;;0.40;0.40;;;25.10;99.90;;;;;;5080508;28;20242;-70
2022/05/11 08:58:29;;;;;;;0.40;0.40;;;25.20;99.90;;;;;;5083006;28;20200;-68
2022/05/11 09:01:22;;;;;;;0.40;0.40;;;25.00;99.90;;;;;;5082792;28;20672;-67
2022/05/11 09:04:11;;;;;;;0.40;0.40;;;24.70;99.90;;;;;;5082703;28;20223;-69
2022/05/11 09:07:01;;;;;;;0.40;0.40;;;24.40;99.90;;;;;;5084354;28;20270;-68
2022/05/11 09:09:51;;;;;;;1.67;1.58;;;24.30;99.90;;;;;;5074028;28;20201;-69
2022/05/11 09:12:40;;;;;;;0.50;0.50;;;24.30;99.90;;;;;;5072216;28;20192;-68
2022/05/11 09:15:47;;;;;;;0.40;0.40;;;24.30;99.90;;;;;;5072852;28;20708;-67
2022/05/11 09:18:39;;;;;;;0.40;0.40;;;24.40;99.90;;;;;;5081958;28;20207;-67
2022/05/11 09:21:32;;;;;;;0.50;0.50;;;24.50;99.90;;;;;;5086784;28;20200;-67
2022/05/11 09:24:31;;;;;;;0.50;0.50;;;24.70;99.90;;;;;;5072850;28;20223;-69
2022/05/11 09:27:25;;;;;;;0.40;0.40;;;24.90;99.90;;;;;;5072991;28;20302;-67
2022/05/11 09:30:21;;;;;;;0.77;0.77;;;25.00;99.90;;;;;;5075144;28;20664;-67
2022/05/11 09:33:15;;;;;;;0.40;0.40;;;25.20;99.90;;;;;;5085145;28;20200;-67
2022/05/11 09:36:04;;;;;;;0.50;0.50;;;25.30;99.90;;;;;;5085926;28;20261;-67
2022/05/11 09:39:14;;;;;;;0.68;0.63;;;25.50;99.90;;;;;;5083585;28;20231;-68
2022/05/11 09:42:16;;;;;;;0.40;0.40;;;25.40;99.90;;;;;;5072977;28;20681;-67
2022/05/11 09:45:05;;;;;;;0.40;0.40;;;25.30;99.90;;;;;;5074413;28;20228;-69
2022/05/11 09:48:05;;;;;;;0.40;0.40;;;25.20;99.90;;;;;;5087200;28;20242;-69
2022/05/11 09:50:55;;;;;;;0.50;0.50;;;25.20;99.90;;;;;;5076276;28;20776;-70
2022/05/11 09:53:51;;;;;;;0.40;0.40;;;25.20;99.90;;;;;;5088929;28;20234;-69
2022/05/11 09:57:03;;;;;;;0.40;0.40;;;25.10;99.90;;;;;;5098424;28;20356;-69
2022/05/11 09:59:56;;;;;;;0.40;0.40;;;25.30;99.90;;;;;;5092267;28;20200;-69
2022/05/11 10:02:47;;;;;;;0.40;0.40;;;25.10;99.90;;;;;;5091546;28;20227;-69
2022/05/11 10:05:40;;;;;;;0.40;0.40;;;25.10;99.90;;;;;;5093232;28;20265;-70
2022/05/11 10:08:31;;;;;;;0.40;0.40;;;25.20;99.90;;;;;;5076756;28;20595;-69
2022/05/11 10:11:23;;;;;;;0.40;0.40;;;25.20;99.90;;;;;;5087635;28;20284;-68
2022/05/11 10:24:02;;;;;;;0.40;0.40;;;25.50;99.00;;;;;;5072958;28;20311;-69
2022/05/11 10:26:58;;;;;;;0.40;0.40;;;25.60;99.00;;;;;;5071404;28;20892;-69
2022/05/11 10:30:01;;;;;;;0.40;0.40;;;25.60;99.10;;;;;;5069493;28;20205;-69
2022/05/11 10:33:14;;;;;;;0.40;0.40;;;25.70;98.20;;;;;;5070224;28;20212;-69
2022/05/11 10:36:09;;;;;;;0.40;0.40;;;25.80;98.60;;;;;;5076786;28;20237;-69
2022/05/11 10:39:15;;;;;;;0.60;0.60;;;25.90;98.70;;;;;;5082856;28;20265;-68
2022/05/11 10:42:10;;;;;;;0.65;0.65;;;26.10;95.90;;;;;;5084262;28;20215;-68
2022/05/11 10:45:06;;;;;;;0.45;0.45;;;26.00;95.70;;;;;;5075354;28;20219;-67
2022/05/11 10:48:08;;;;;;;0.77;0.68;;;25.80;95.50;;;;;;5090872;28;20212;-68
2022/05/11 10:51:03;;;;;;;0.40;0.40;;;26.00;95.50;;;;;;5075898;28;20192;-69
2022/05/11 10:53:56;;;;;;;2.13;1.85;;;26.50;95.60;;;;;;5087732;28;20200;-67
2022/05/11 10:56:57;;;;;;;0.60;0.60;;;27.20;94.50;;;;;;5090694;28;20688;-67
2022/05/11 10:59:59;;;;;;;0.50;0.50;;;27.40;94.20;;;;;;5093912;28;20356;-67
2022/05/11 11:03:11;;;;;;;0.70;0.70;;;27.80;93.30;;;;;;5092720;28;20719;-67
2022/05/11 11:09:36;;;;;;;0.50;0.50;;;27.80;91.50;;;;;;5095051;28;20211;-67
2022/05/11 11:12:49;;;;;;;0.43;0.43;;;27.80;90.90;;;;;;5091261;28;20196;-68
2022/05/11 11:15:41;;;;;;;0.80;0.80;;;28.20;90.60;;;;;;5094646;28;20252;-68
2022/05/11 11:18:33;;;;;;;0.80;0.80;;;28.40;88.30;;;;;;5094205;28;20264;-68
2022/05/11 11:21:23;;;;;;;0.50;0.50;;;28.30;88.00;;;;;;5093897;28;20291;-67
2022/05/11 11:24:17;;;;;;;2.45;1.63;;;28.30;86.10;;;;;;5095069;28;20716;-68
2022/05/11 11:27:08;;;;;;;0.80;0.75;;;28.40;83.50;;;;;;5094920;28;20593;-67
2022/05/11 11:30:16;;;;;;;0.40;0.40;;;28.30;82.40;;;;;;5094609;28;20579;-67
2022/05/11 11:33:23;;;;;;;0.50;0.50;;;28.20;82.30;;;;;;5093785;28;20196;-67
2022/05/11 11:36:31;;;;;;;0.50;0.50;;;28.10;82.80;;;;;;5094071;28;20223;-67
2022/05/11 11:39:54;;;;;;;0.85;0.70;;;28.20;83.50;;;;;;5094490;28;20207;-67
2022/05/11 11:42:45;;;;;;;1.55;1.35;;;28.40;81.00;;;;;;5092987;28;20212;-68
2022/05/11 11:46:07;;;;;;;3.50;1.63;;;28.50;79.50;;;;;;5093913;28;20224;-67
2022/05/11 11:49:07;;;;;;;1.27;1.17;;;28.10;80.80;;;;;;5094034;28;20196;-66
2022/05/11 11:52:00;;;;;;;0.50;0.50;;;28.00;81.80;;;;;;5092362;28;20200;-70
2022/05/11 11:54:49;;;;;;;1.65;0.85;;;28.20;82.30;;;;;;5093012;28;20196;-66
2022/05/11 11:57:38;;;;;;;0.40;0.40;;;28.20;80.40;;;;;;5091990;28;20200;-67
2022/05/11 12:00:59;;;;;;;0.45;0.45;;;28.50;80.20;;;;;;5092869;28;20207;-66
2022/05/11 12:03:57;;;;;;;0.73;0.73;;;28.80;78.80;;;;;;5091939;28;20222;-67
2022/05/11 12:16:08;;;;;;;0.40;0.40;;;28.70;74.40;;;;;;5091803;28;20631;-66
2022/05/11 12:19:09;;;;;;;0.40;0.40;;;28.90;76.00;;;;;;5092568;28;20206;-66
2022/05/11 12:21:59;;;;;;;0.40;0.40;;;29.40;75.30;;;;;;5091500;28;20192;-67
2022/05/11 12:24:57;;;;;;;0.40;0.40;;;29.80;74.20;;;;;;5093412;28;20269;-67
2022/05/11 12:27:48;;;;;;;0.52;0.52;;;30.00;72.40;;;;;;5093525;28;20200;-66
2022/05/11 12:30:42;;;;;;;1.35;1.25;;;30.10;71.20;;;;;;5091137;28;20192;-66
2022/05/11 12:33:33;;;;;;;0.90;0.88;;;30.20;70.60;;;;;;5092732;28;20203;-67
2022/05/11 12:36:33;;;;;;;2.35;1.10;;;29.80;71.30;;;;;;5092854;28;20754;-66
2022/05/11 12:39:32;;;;;;;0.80;0.80;;;29.90;72.80;;;;;;5071988;28;20212;-67
2022/05/11 12:42:28;;;;;;;1.20;1.10;;;29.70;71.90;;;;;;5071011;28;20262;-66
2022/05/11 12:45:21;;;;;;;0.40;0.40;;;30.20;72.00;;;;;;5071500;28;20208;-67
2022/05/11 12:48:16;;;;;;;0.60;0.60;;;30.60;71.50;;;;;;5070659;28;21037;-66
2022/05/11 12:51:06;;;;;;;0.40;0.40;;;30.90;70.20;;;;;;5071761;28;20250;-67
2022/05/11 12:53:57;;;;;;;1.30;0.77;;;31.00;69.70;;;;;;5085571;28;20220;-67
2022/05/11 12:56:45;;;;;;;0.50;0.50;;;31.20;67.20;;;;;;5081549;28;20289;-67
2022/05/11 12:59:34;;;;;;;2.03;1.63;;;31.00;67.70;;;;;;5090549;28;20196;-67
2022/05/11 13:02:27;;;;;;;0.45;0.45;;;31.40;66.70;;;;;;5092758;27;20208;-67
2022/05/11 13:05:19;;;;;;;0.50;0.50;;;33.20;65.00;;;;;;5099146;28;20223;-67
2022/05/11 13:08:08;;;;;;;1.75;1.65;;;34.70;61.10;;;;;;5096750;28;20196;-67
2022/05/11 13:10:57;;;;;;;0.50;0.50;;;34.50;58.60;;;;;;5090297;28;20200;-67
2022/05/11 13:13:48;;;;;;;0.43;0.43;;;34.10;59.20;;;;;;5086542;28;20192;-68
2022/05/11 13:16:37;;;;;;;0.40;0.40;;;34.00;58.70;;;;;;5080308;28;20216;-67
2022/05/11 13:19:30;;;;;;;0.88;0.88;;;34.20;57.70;;;;;;5097440;28;20194;-68
2022/05/11 13:22:22;;;;;;;0.50;0.50;;;33.40;56.90;;;;;;5090564;28;20210;-67
2022/05/11 13:25:40;;;;;;;0.75;0.75;;;33.70;57.00;;;;;;5096930;28;20224;-67
2022/05/11 13:28:31;;;;;;;1.50;1.40;;;35.70;55.20;;;;;;5096904;28;20262;-68
2022/05/11 13:31:29;;;;;;;0.52;0.52;;;37.50;52.40;;;;;;5095442;28;20222;-68
2022/05/11 13:34:34;;;;;;;0.40;0.40;;;36.40;51.60;;;;;;5094638;28;20661;-68
2022/05/11 13:37:26;;;;;;;0.40;0.40;;;34.70;53.40;;;;;;5096378;28;20199;-67
2022/05/11 13:40:26;;;;;;;0.40;0.40;;;33.20;55.10;;;;;;5093823;28;20277;-68
2022/05/11 13:43:19;;;;;;;0.40;0.40;;;32.40;56.20;;;;;;5098797;28;20199;-68
2022/05/11 13:46:10;;;;;;;0.40;0.40;;;32.20;57.20;;;;;;5098593;28;20231;-68
2022/05/11 13:49:16;;;;;;;0.40;0.40;;;33.10;56.20;;;;;;5101925;28;20207;-68
2022/05/11 13:52:09;;;;;;;1.48;1.38;;;32.80;56.50;;;;;;5091322;28;20197;-68
2022/05/11 13:54:58;;;;;;;0.88;0.88;;;32.10;56.70;;;;;;5086926;28;20307;-67
2022/05/11 13:57:46;;;;;;;0.47;0.47;;;31.70;57.30;;;;;;5103436;28;20700;-68
2022/05/11 14:00:36;;;;;;;0.65;0.60;;;31.80;57.00;;;;;;5099412;28;20207;-68
2022/05/11 14:03:29;;;;;;;0.60;0.60;;;32.00;57.00;;;;;;5102833;28;20203;-67
2022/05/11 14:06:21;;;;;;;0.65;0.65;;;32.40;56.20;;;;;;5087051;28;20231;-67
2022/05/11 14:09:09;;;;;;;0.40;0.40;;;32.60;55.40;;;;;;5082059;28;20204;-68
2022/05/11 14:11:57;;;;;;;0.90;0.90;;;32.50;55.70;;;;;;5081753;28;20196;-68
2022/05/11 14:14:45;;;;;;;0.60;0.60;;;33.00;54.60;;;;;;5081498;28;20323;-67
2022/05/11 14:17:42;;;;;;;0.90;0.90;;;32.80;54.70;;;;;;5086751;28;20203;-68
2022/05/11 14:20:30;;;;;;;0.50;0.50;;;32.50;54.50;;;;;;5087547;28;20699;-67
2022/05/11 14:23:19;;;;;;;0.93;0.93;;;32.40;55.20;;;;;;5078423;28;20253;-68
2022/05/11 14:26:08;;;;;;;0.60;0.60;;;33.30;54.30;;;;;;5086025;28;20696;-68
2022/05/11 14:28:56;;;;;;;2.50;0.98;;;34.50;53.20;;;;;;5083372;28;20619;-68
2022/05/11 14:31:45;;;;;;;1.30;1.20;;;34.20;52.80;;;;;;5081974;28;20250;-67
2022/05/11 14:34:35;;;;;;;1.15;1.05;;;33.10;54.40;;;;;;5084949;28;20732;-67
2022/05/11 14:37:23;;;;;;;0.60;0.60;;;34.30;53.30;;;;;;5083423;28;20297;-67
2022/05/11 14:40:13;;;;;;;1.13;0.70;;;34.10;53.30;;;;;;5084734;28;20276;-67
2022/05/11 14:43:02;;;;;;;0.40;0.40;;;33.10;54.10;;;;;;5082653;28;20201;-68
2022/05/11 14:45:56;;;;;;;1.55;1.45;;;32.70;55.00;;;;;;5083424;28;20240;-68
2022/05/11 14:48:47;;;;;;;0.85;0.85;;;33.20;54.40;;;;;;5084219;28;20664;-68
2022/05/11 14:51:38;;;;;;;0.40;0.40;;;34.80;53.00;;;;;;5098540;22;20271;-71
2022/05/11 14:54:26;;;;;;;1.13;1.10;;;34.70;52.00;;;;;;5054622;28;20190;-68
2022/05/11 15:03:27;;;;;;;0.50;0.50;;;34.50;52.30;;;;;;5023173;28;20737;-67
2022/05/11 15:06:19;;;;;;;1.02;0.95;;;34.10;52.20;;;;;;5026194;28;20194;-66
2022/05/11 15:09:09;;;;;;;0.40;0.40;;;33.40;52.70;;;;;;5026632;28;20219;-67
2022/05/11 15:15:05;;;;;;;1.23;1.13;;;31.20;55.60;;;;;;5018258;28;20213;-67
2022/05/11 15:17:54;;;;;;;0.40;0.40;;;30.50;56.00;;;;;;5032717;28;20202;-66
2022/05/11 15:20:43;;;;;;;0.52;0.52;;;30.80;56.70;;;;;;5033875;28;20205;-65
2022/05/11 15:23:31;;;;;;;0.57;0.55;;;31.40;55.50;;;;;;5025760;28;20199;-66
2022/05/11 15:26:21;;;;;;;1.83;1.73;;;31.90;55.20;;;;;;5027723;28;20571;-66
2022/05/11 15:29:09;;;;;;;1.92;1.73;;;33.10;53.80;;;;;;5027070;28;20194;-67
2022/05/11 15:32:01;;;;;;;0.40;0.40;;;33.40;53.10;;;;;;5026071;28;20242;-67
2022/05/11 15:34:49;;;;;;;0.40;0.40;;;33.70;53.50;;;;;;5025804;28;20221;-67
2022/05/11 15:37:38;;;;;;;0.40;0.40;;;33.00;53.70;;;;;;5025269;28;20211;-66
2022/05/11 15:40:28;;;;;;;0.88;0.88;;;32.30;54.80;;;;;;5028174;28;20736;-66
2022/05/11 15:43:24;;;;;;;1.17;1.08;;;31.80;55.20;;;;;;5025388;28;20606;-66
2022/05/11 15:46:20;;;;;;;1.80;1.15;;;31.90;54.30;;;;;;5027544;28;20730;-67
2022/05/11 15:49:09;;;;;;;0.70;0.70;;;31.30;55.30;;;;;;5032932;28;20718;-67
2022/05/11 15:51:57;;;;;;;0.60;0.60;;;31.00;56.60;;;;;;5027031;28;20300;-66
2022/05/11 15:54:47;;;;;;;0.60;0.60;;;32.10;54.80;;;;;;5025364;28;20798;-67
2022/05/11 15:57:36;;;;;;;2.67;1.05;;;31.80;54.60;;;;;;5024482;28;20202;-66
2022/05/11 16:00:27;;;;;;;0.52;0.52;;;30.90;55.60;;;;;;5026554;28;20574;-66
2022/05/11 16:03:17;;;;;;;1.40;1.30;;;30.30;56.60;;;;;;5032949;28;20293;-66
2022/05/11 16:06:06;;;;;;;0.80;0.60;;;29.80;57.30;;;;;;5029937;28;20194;-66
2022/05/11 16:08:55;;;;;;;0.40;0.40;;;29.40;58.10;;;;;;5028973;28;20202;-67